Usk, Canada
Current Conditions -  °F | °C
As of 1:00 AM on Thursday 23 Oct 2014 (Local Time) from CYXT Reporting Station
Light Rain Light Rain  
Wind Chill: 43°   Ceiling: 800
Heat Index: 43°   Visibility: 3mi
Dew Point: 43°   Wind: 3mph
Humidity: 100%   Direction: 90°E
Pressure: 29.44"   Gusts: NA
Location:  54.64°N, 128.41°W
Report Text: CYXT 230800Z 09003KT 3SM -RA BR SCT003 OVC008 06/06 A2944 RMK SF3ST5 SLP974
Loading
Personal Weather Stations






























Interactive Weather Map
Tropical Storm Tracking
New forecast layout! Learn more

10-Day Weather Forecast

Advertisements
Track Severe Weather on mobile